sensor_id;sensor_type;location;lat;lon;timestamp;P1;durP1;ratioP1;P2;durP2;ratioP2
61104;SDS011;46987;32.638;-115.438;2023-04-03T00:30:10;8.57;;;2.22;;
61104;SDS011;46987;32.638;-115.438;2023-04-03T00:32:38;9.98;;;1.98;;
61104;SDS011;46987;32.638;-115.438;2023-04-03T00:35:05;7.60;;;1.58;;
61104;SDS011;46987;32.638;-115.438;2023-04-03T00:37:31;9.75;;;1.80;;
61104;SDS011;46987;32.638;-115.438;2023-04-03T00:39:58;7.15;;;2.55;;
61104;SDS011;46987;32.638;-115.438;2023-04-03T00:42:25;9.80;;;1.88;;
61104;SDS011;46987;32.638;-115.438;2023-04-03T00:47:38;9.88;;;2.13;;
61104;SDS011;46987;32.638;-115.438;2023-04-03T00:50:06;11.18;;;2.72;;
61104;SDS011;46987;32.638;-115.438;2023-04-03T00:52:33;8.25;;;2.47;;
61104;SDS011;46987;32.638;-115.438;2023-04-03T00:55:00;9.95;;;2.70;;
61104;SDS011;46987;32.638;-115.438;2023-04-03T00:57:28;9.25;;;2.13;;
61104;SDS011;46987;32.638;-115.438;2023-04-03T00:59:57;8.07;;;2.30;;
61104;SDS011;46987;32.638;-115.438;2023-04-03T01:02:25;12.00;;;2.58;;
61104;SDS011;46987;32.638;-115.438;2023-04-03T01:04:54;10.85;;;2.70;;
61104;SDS011;46987;32.638;-115.438;2023-04-03T01:07:21;9.90;;;2.08;;
61104;SDS011;46987;32.638;-115.438;2023-04-03T01:09:49;8.25;;;1.75;;
61104;SDS011;46987;32.638;-115.438;2023-04-03T01:12:18;7.90;;;1.67;;
61104;SDS011;46987;32.638;-115.438;2023-04-03T01:14:48;11.55;;;2.35;;
61104;SDS011;46987;32.638;-115.438;2023-04-03T01:17:24;7.55;;;1.40;;
61104;SDS011;46987;32.638;-115.438;2023-04-03T01:19:56;7.05;;;1.55;;
61104;SDS011;46987;32.638;-115.438;2023-04-03T01:22:27;9.98;;;2.22;;
61104;SDS011;46987;32.638;-115.438;2023-04-03T01:24:57;8.68;;;1.67;;
61104;SDS011;46987;32.638;-115.438;2023-04-03T01:27:23;12.50;;;2.05;;
61104;SDS011;46987;32.638;-115.438;2023-04-03T01:29:50;6.25;;;1.73;;
61104;SDS011;46987;32.638;-115.438;2023-04-03T01:32:19;9.82;;;3.00;;
61104;SDS011;46987;32.638;-115.438;2023-04-03T01:34:46;13.43;;;3.50;;
61104;SDS011;46987;32.638;-115.438;2023-04-03T01:37:12;10.02;;;2.33;;
61104;SDS011;46987;32.638;-115.438;2023-04-03T01:39:39;10.60;;;2.83;;
61104;SDS011;46987;32.638;-115.438;2023-04-03T01:42:06;6.53;;;2.05;;
61104;SDS011;46987;32.638;-115.438;2023-04-03T01:44:37;6.47;;;1.98;;
61104;SDS011;46987;32.638;-115.438;2023-04-03T01:47:05;6.63;;;1.33;;
61104;SDS011;46987;32.638;-115.438;2023-04-03T01:49:33;7.72;;;1.88;;
61104;SDS011;46987;32.638;-115.438;2023-04-03T01:52:00;11.57;;;1.90;;
61104;SDS011;46987;32.638;-115.438;2023-04-03T01:54:27;8.50;;;1.80;;
61104;SDS011;46987;32.638;-115.438;2023-04-03T01:56:54;8.10;;;1.98;;
61104;SDS011;46987;32.638;-115.438;2023-04-03T01:59:21;5.57;;;2.05;;
61104;SDS011;46987;32.638;-115.438;2023-04-03T02:01:48;6.72;;;1.48;;
61104;SDS011;46987;32.638;-115.438;2023-04-03T02:04:14;7.78;;;1.90;;
61104;SDS011;46987;32.638;-115.438;2023-04-03T02:06:43;8.02;;;2.33;;
61104;SDS011;46987;32.638;-115.438;2023-04-03T02:09:09;13.02;;;2.15;;
61104;SDS011;46987;32.638;-115.438;2023-04-03T02:11:36;8.68;;;2.10;;
61104;SDS011;46987;32.638;-115.438;2023-04-03T02:14:03;7.22;;;2.10;;
61104;SDS011;46987;32.638;-115.438;2023-04-03T02:16:29;8.15;;;2.17;;
61104;SDS011;46987;32.638;-115.438;2023-04-03T02:18:56;9.23;;;2.25;;
61104;SDS011;46987;32.638;-115.438;2023-04-03T02:21:23;29.83;;;6.85;;
61104;SDS011;46987;32.638;-115.438;2023-04-03T02:23:51;24.95;;;5.88;;
61104;SDS011;46987;32.638;-115.438;2023-04-03T02:26:18;26.40;;;6.18;;
61104;SDS011;46987;32.638;-115.438;2023-04-03T02:28:45;10.73;;;1.90;;
61104;SDS011;46987;32.638;-115.438;2023-04-03T02:31:12;5.57;;;1.40;;
61104;SDS011;46987;32.638;-115.438;2023-04-03T02:33:41;5.57;;;1.60;;
61104;SDS011;46987;32.638;-115.438;2023-04-03T02:36:10;5.28;;;1.83;;
61104;SDS011;46987;32.638;-115.438;2023-04-03T02:38:39;7.07;;;1.58;;
61104;SDS011;46987;32.638;-115.438;2023-04-03T02:41:08;5.07;;;1.70;;
61104;SDS011;46987;32.638;-115.438;2023-04-03T02:43:35;3.92;;;1.00;;
61104;SDS011;46987;32.638;-115.438;2023-04-03T02:46:03;3.92;;;1.27;;
61104;SDS011;46987;32.638;-115.438;2023-04-03T02:48:31;6.68;;;1.30;;
61104;SDS011;46987;32.638;-115.438;2023-04-03T02:50:57;4.15;;;1.27;;
61104;SDS011;46987;32.638;-115.438;2023-04-03T02:53:24;5.57;;;1.20;;
61104;SDS011;46987;32.638;-115.438;2023-04-03T02:55:51;7.63;;;1.65;;
61104;SDS011;46987;32.638;-115.438;2023-04-03T02:58:19;4.95;;;1.42;;
61104;SDS011;46987;32.638;-115.438;2023-04-03T03:00:46;5.28;;;1.50;;
61104;SDS011;46987;32.638;-115.438;2023-04-03T03:03:13;5.20;;;1.30;;
61104;SDS011;46987;32.638;-115.438;2023-04-03T03:05:40;6.30;;;1.10;;
61104;SDS011;46987;32.638;-115.438;2023-04-03T03:08:06;5.45;;;1.25;;
61104;SDS011;46987;32.638;-115.438;2023-04-03T03:10:33;6.88;;;1.40;;
61104;SDS011;46987;32.638;-115.438;2023-04-03T03:13:00;5.93;;;1.10;;
61104;SDS011;46987;32.638;-115.438;2023-04-03T03:15:31;7.72;;;1.23;;
61104;SDS011;46987;32.638;-115.438;2023-04-03T03:17:57;4.43;;;1.13;;
61104;SDS011;46987;32.638;-115.438;2023-04-03T03:20:25;5.45;;;1.55;;
61104;SDS011;46987;32.638;-115.438;2023-04-03T03:22:52;12.63;;;3.35;;
61104;SDS011;46987;32.638;-115.438;2023-04-03T03:25:19;13.70;;;3.30;;
61104;SDS011;46987;32.638;-115.438;2023-04-03T03:27:45;14.40;;;3.95;;
61104;SDS011;46987;32.638;-115.438;2023-04-03T03:30:12;17.92;;;3.33;;
61104;SDS011;46987;32.638;-115.438;2023-04-03T03:32:40;11.55;;;3.65;;
61104;SDS011;46987;32.638;-115.438;2023-04-03T03:35:07;12.85;;;3.47;;
61104;SDS011;46987;32.638;-115.438;2023-04-03T03:37:34;10.70;;;2.83;;
61104;SDS011;46987;32.638;-115.438;2023-04-03T03:40:01;10.55;;;2.58;;
61104;SDS011;46987;32.638;-115.438;2023-04-03T03:42:30;13.63;;;2.83;;
61104;SDS011;46987;32.638;-115.438;2023-04-03T03:44:57;11.40;;;3.55;;
61104;SDS011;46987;32.638;-115.438;2023-04-03T03:47:23;13.93;;;4.15;;
61104;SDS011;46987;32.638;-115.438;2023-04-03T03:49:51;16.70;;;3.75;;
61104;SDS011;46987;32.638;-115.438;2023-04-03T03:52:18;14.25;;;4.28;;
61104;SDS011;46987;32.638;-115.438;2023-04-03T03:54:45;13.82;;;4.75;;
61104;SDS011;46987;32.638;-115.438;2023-04-03T03:57:12;19.45;;;4.80;;
61104;SDS011;46987;32.638;-115.438;2023-04-03T03:59:39;16.55;;;4.75;;
61104;SDS011;46987;32.638;-115.438;2023-04-03T04:02:07;20.52;;;4.82;;
61104;SDS011;46987;32.638;-115.438;2023-04-03T04:04:34;14.80;;;4.28;;
61104;SDS011;46987;32.638;-115.438;2023-04-03T04:51:53;8.95;;;3.58;;
61104;SDS011;46987;32.638;-115.438;2023-04-03T04:54:26;13.45;;;3.88;;
61104;SDS011;46987;32.638;-115.438;2023-04-03T04:56:53;16.30;;;4.40;;
61104;SDS011;46987;32.638;-115.438;2023-04-03T04:59:20;12.00;;;4.00;;
61104;SDS011;46987;32.638;-115.438;2023-04-03T05:01:47;11.93;;;4.90;;
61104;SDS011;46987;32.638;-115.438;2023-04-03T05:04:16;17.15;;;4.53;;
61104;SDS011;46987;32.638;-115.438;2023-04-03T05:06:45;13.15;;;2.80;;
61104;SDS011;46987;32.638;-115.438;2023-04-03T05:09:19;16.10;;;2.95;;
61104;SDS011;46987;32.638;-115.438;2023-04-03T05:11:47;11.48;;;2.75;;
61104;SDS011;46987;32.638;-115.438;2023-04-03T05:14:16;12.77;;;2.47;;
61104;SDS011;46987;32.638;-115.438;2023-04-03T05:16:43;14.80;;;2.70;;
61104;SDS011;46987;32.638;-115.438;2023-04-03T05:19:10;14.02;;;3.10;;
61104;SDS011;46987;32.638;-115.438;2023-04-03T05:21:38;9.90;;;2.15;;
61104;SDS011;46987;32.638;-115.438;2023-04-03T05:24:11;9.50;;;2.63;;
61104;SDS011;46987;32.638;-115.438;2023-04-03T05:26:42;8.45;;;2.50;;
61104;SDS011;46987;32.638;-115.438;2023-04-03T05:29:10;13.20;;;2.85;;
61104;SDS011;46987;32.638;-115.438;2023-04-03T05:31:37;9.63;;;3.05;;
61104;SDS011;46987;32.638;-115.438;2023-04-03T05:34:06;17.55;;;4.13;;
61104;SDS011;46987;32.638;-115.438;2023-04-03T05:36:35;8.25;;;3.53;;
61104;SDS011;46987;32.638;-115.438;2023-04-03T05:39:05;14.45;;;4.10;;
61104;SDS011;46987;32.638;-115.438;2023-04-03T05:41:35;14.10;;;3.80;;
61104;SDS011;46987;32.638;-115.438;2023-04-03T05:44:03;11.88;;;4.82;;
61104;SDS011;46987;32.638;-115.438;2023-04-03T05:46:30;10.27;;;3.17;;
61104;SDS011;46987;32.638;-115.438;2023-04-03T05:49:01;11.50;;;2.80;;
61104;SDS011;46987;32.638;-115.438;2023-04-03T05:51:31;11.13;;;2.63;;
61104;SDS011;46987;32.638;-115.438;2023-04-03T05:54:06;15.10;;;3.33;;
61104;SDS011;46987;32.638;-115.438;2023-04-03T05:56:35;11.65;;;2.97;;
61104;SDS011;46987;32.638;-115.438;2023-04-03T05:59:03;13.52;;;3.92;;
61104;SDS011;46987;32.638;-115.438;2023-04-03T06:01:30;13.07;;;5.05;;
61104;SDS011;46987;32.638;-115.438;2023-04-03T06:03:57;13.02;;;5.60;;
61104;SDS011;46987;32.638;-115.438;2023-04-03T06:06:25;15.38;;;6.18;;
61104;SDS011;46987;32.638;-115.438;2023-04-03T06:08:51;15.27;;;5.85;;
61104;SDS011;46987;32.638;-115.438;2023-04-03T06:11:18;13.05;;;5.78;;
61104;SDS011;46987;32.638;-115.438;2023-04-03T06:13:45;18.63;;;6.47;;
61104;SDS011;46987;32.638;-115.438;2023-04-03T06:16:18;15.13;;;5.05;;
61104;SDS011;46987;32.638;-115.438;2023-04-03T06:18:45;12.30;;;5.28;;
61104;SDS011;46987;32.638;-115.438;2023-04-03T06:21:12;17.25;;;5.68;;
61104;SDS011;46987;32.638;-115.438;2023-04-03T06:23:40;12.88;;;4.65;;
61104;SDS011;46987;32.638;-115.438;2023-04-03T06:26:07;16.23;;;5.30;;
61104;SDS011;46987;32.638;-115.438;2023-04-03T07:08:51;11.98;;;4.13;;
61104;SDS011;46987;32.638;-115.438;2023-04-03T07:11:18;13.95;;;3.83;;
61104;SDS011;46987;32.638;-115.438;2023-04-03T07:13:46;15.82;;;3.60;;
61104;SDS011;46987;32.638;-115.438;2023-04-03T07:16:12;16.73;;;4.30;;
61104;SDS011;46987;32.638;-115.438;2023-04-03T07:18:39;13.48;;;4.22;;
61104;SDS011;46987;32.638;-115.438;2023-04-03T07:21:06;12.98;;;4.68;;
61104;SDS011;46987;32.638;-115.438;2023-04-03T07:23:33;13.75;;;3.90;;
61104;SDS011;46987;32.638;-115.438;2023-04-03T07:26:01;12.93;;;3.72;;
61104;SDS011;46987;32.638;-115.438;2023-04-03T07:28:28;17.65;;;4.53;;
61104;SDS011;46987;32.638;-115.438;2023-04-03T07:30:59;12.75;;;4.35;;
61104;SDS011;46987;32.638;-115.438;2023-04-03T07:33:26;13.95;;;4.22;;
61104;SDS011;46987;32.638;-115.438;2023-04-03T07:35:53;14.52;;;4.10;;
61104;SDS011;46987;32.638;-115.438;2023-04-03T07:38:19;13.48;;;3.80;;
61104;SDS011;46987;32.638;-115.438;2023-04-03T07:40:46;11.70;;;4.95;;
61104;SDS011;46987;32.638;-115.438;2023-04-03T07:43:15;18.17;;;4.13;;
61104;SDS011;46987;32.638;-115.438;2023-04-03T07:45:42;12.32;;;3.85;;
61104;SDS011;46987;32.638;-115.438;2023-04-03T07:48:09;15.05;;;4.20;;
61104;SDS011;46987;32.638;-115.438;2023-04-03T07:50:36;8.00;;;3.50;;
61104;SDS011;46987;32.638;-115.438;2023-04-03T07:53:03;11.35;;;3.45;;
61104;SDS011;46987;32.638;-115.438;2023-04-03T07:55:29;11.13;;;3.08;;
61104;SDS011;46987;32.638;-115.438;2023-04-03T07:57:56;13.48;;;3.40;;
61104;SDS011;46987;32.638;-115.438;2023-04-03T08:00:24;11.15;;;3.60;;
61104;SDS011;46987;32.638;-115.438;2023-04-03T08:02:51;14.05;;;3.20;;
61104;SDS011;46987;32.638;-115.438;2023-04-03T08:05:18;10.00;;;2.78;;
61104;SDS011;46987;32.638;-115.438;2023-04-03T08:07:45;14.50;;;2.65;;
61104;SDS011;46987;32.638;-115.438;2023-04-03T08:10:12;8.35;;;2.10;;
61104;SDS011;46987;32.638;-115.438;2023-04-03T08:12:39;14.25;;;2.30;;
61104;SDS011;46987;32.638;-115.438;2023-04-03T08:15:07;7.07;;;1.58;;
61104;SDS011;46987;32.638;-115.438;2023-04-03T08:17:36;6.80;;;2.08;;
61104;SDS011;46987;32.638;-115.438;2023-04-03T08:20:03;7.93;;;1.73;;
61104;SDS011;46987;32.638;-115.438;2023-04-03T08:22:30;9.18;;;1.70;;
61104;SDS011;46987;32.638;-115.438;2023-04-03T08:24:57;7.32;;;1.40;;
61104;SDS011;46987;32.638;-115.438;2023-04-03T08:27:23;7.38;;;2.00;;
61104;SDS011;46987;32.638;-115.438;2023-04-03T08:29:50;5.40;;;1.63;;
61104;SDS011;46987;32.638;-115.438;2023-04-03T08:32:17;12.50;;;2.35;;
61104;SDS011;46987;32.638;-115.438;2023-04-03T08:34:47;11.32;;;2.10;;
61104;SDS011;46987;32.638;-115.438;2023-04-03T08:37:13;5.03;;;1.35;;
61104;SDS011;46987;32.638;-115.438;2023-04-03T08:39:42;11.05;;;1.48;;
61104;SDS011;46987;32.638;-115.438;2023-04-03T08:42:12;9.20;;;1.67;;
61104;SDS011;46987;32.638;-115.438;2023-04-03T08:44:43;8.30;;;2.37;;
61104;SDS011;46987;32.638;-115.438;2023-04-03T08:47:15;5.63;;;1.42;;
61104;SDS011;46987;32.638;-115.438;2023-04-03T08:49:46;5.82;;;1.33;;
61104;SDS011;46987;32.638;-115.438;2023-04-03T08:52:18;11.05;;;1.48;;
61104;SDS011;46987;32.638;-115.438;2023-04-03T08:54:49;6.25;;;1.10;;
61104;SDS011;46987;32.638;-115.438;2023-04-03T08:57:16;7.35;;;1.35;;
61104;SDS011;46987;32.638;-115.438;2023-04-03T08:59:44;9.10;;;1.67;;
61104;SDS011;46987;32.638;-115.438;2023-04-03T09:02:23;9.32;;;1.90;;
61104;SDS011;46987;32.638;-115.438;2023-04-03T09:04:53;6.60;;;1.40;;
61104;SDS011;46987;32.638;-115.438;2023-04-03T09:07:22;9.15;;;1.88;;
61104;SDS011;46987;32.638;-115.438;2023-04-03T09:09:49;6.45;;;1.30;;
61104;SDS011;46987;32.638;-115.438;2023-04-03T09:12:18;6.40;;;1.63;;
61104;SDS011;46987;32.638;-115.438;2023-04-03T09:14:50;9.93;;;1.40;;
61104;SDS011;46987;32.638;-115.438;2023-04-03T09:17:24;8.13;;;1.70;;
61104;SDS011;46987;32.638;-115.438;2023-04-03T09:20:01;9.80;;;2.17;;
61104;SDS011;46987;32.638;-115.438;2023-04-03T09:22:31;5.30;;;2.00;;
61104;SDS011;46987;32.638;-115.438;2023-04-03T09:24:58;6.32;;;2.17;;
61104;SDS011;46987;32.638;-115.438;2023-04-03T09:27:26;8.77;;;2.00;;
61104;SDS011;46987;32.638;-115.438;2023-04-03T09:29:54;8.75;;;2.00;;
61104;SDS011;46987;32.638;-115.438;2023-04-03T09:32:24;6.18;;;1.85;;
61104;SDS011;46987;32.638;-115.438;2023-04-03T09:34:51;5.85;;;1.40;;
61104;SDS011;46987;32.638;-115.438;2023-04-03T09:40:02;12.02;;;2.83;;
61104;SDS011;46987;32.638;-115.438;2023-04-03T09:42:30;7.07;;;2.67;;
61104;SDS011;46987;32.638;-115.438;2023-04-03T09:44:58;9.75;;;2.67;;
61104;SDS011;46987;32.638;-115.438;2023-04-03T09:47:25;11.85;;;2.35;;
61104;SDS011;46987;32.638;-115.438;2023-04-03T09:49:55;7.82;;;2.38;;
61104;SDS011;46987;32.638;-115.438;2023-04-03T09:52:35;10.55;;;3.20;;
61104;SDS011;46987;32.638;-115.438;2023-04-03T09:55:08;7.65;;;2.60;;
61104;SDS011;46987;32.638;-115.438;2023-04-03T09:57:39;5.47;;;2.20;;
61104;SDS011;46987;32.638;-115.438;2023-04-03T10:00:10;9.93;;;3.10;;
61104;SDS011;46987;32.638;-115.438;2023-04-03T10:02:45;7.70;;;2.47;;
61104;SDS011;46987;32.638;-115.438;2023-04-03T10:05:27;12.15;;;2.08;;
61104;SDS011;46987;32.638;-115.438;2023-04-03T10:08:00;14.10;;;2.40;;
61104;SDS011;46987;32.638;-115.438;2023-04-03T10:10:35;10.55;;;2.80;;
61104;SDS011;46987;32.638;-115.438;2023-04-03T10:13:05;7.72;;;2.28;;
61104;SDS011;46987;32.638;-115.438;2023-04-03T10:15:33;7.05;;;2.20;;
61104;SDS011;46987;32.638;-115.438;2023-04-03T10:18:02;9.88;;;3.33;;
61104;SDS011;46987;32.638;-115.438;2023-04-03T10:20:34;6.53;;;2.78;;
61104;SDS011;46987;32.638;-115.438;2023-04-03T10:23:10;5.93;;;2.25;;
61104;SDS011;46987;32.638;-115.438;2023-04-03T10:25:43;8.93;;;2.28;;
61104;SDS011;46987;32.638;-115.438;2023-04-03T10:28:15;12.35;;;2.75;;
61104;SDS011;46987;32.638;-115.438;2023-04-03T10:30:46;6.00;;;2.40;;
61104;SDS011;46987;32.638;-115.438;2023-04-03T10:33:23;6.55;;;3.10;;
61104;SDS011;46987;32.638;-115.438;2023-04-03T10:35:55;11.15;;;3.08;;
61104;SDS011;46987;32.638;-115.438;2023-04-03T10:38:27;8.50;;;3.08;;
61104;SDS011;46987;32.638;-115.438;2023-04-03T10:40:59;7.78;;;2.03;;
61104;SDS011;46987;32.638;-115.438;2023-04-03T10:43:31;9.65;;;2.30;;
61104;SDS011;46987;32.638;-115.438;2023-04-03T10:46:00;8.43;;;2.60;;
61104;SDS011;46987;32.638;-115.438;2023-04-03T10:48:34;9.10;;;2.20;;
61104;SDS011;46987;32.638;-115.438;2023-04-03T10:51:06;6.97;;;2.65;;
61104;SDS011;46987;32.638;-115.438;2023-04-03T10:53:39;10.45;;;2.15;;
61104;SDS011;46987;32.638;-115.438;2023-04-03T10:56:10;12.85;;;2.90;;
61104;SDS011;46987;32.638;-115.438;2023-04-03T10:58:38;11.05;;;3.03;;
61104;SDS011;46987;32.638;-115.438;2023-04-03T11:01:07;11.55;;;3.30;;
61104;SDS011;46987;32.638;-115.438;2023-04-03T11:03:35;9.82;;;3.65;;
61104;SDS011;46987;32.638;-115.438;2023-04-03T11:06:05;13.18;;;3.30;;
61104;SDS011;46987;32.638;-115.438;2023-04-03T11:08:35;10.93;;;3.08;;
61104;SDS011;46987;32.638;-115.438;2023-04-03T11:11:05;7.10;;;3.08;;
61104;SDS011;46987;32.638;-115.438;2023-04-03T11:13:35;10.38;;;2.83;;
61104;SDS011;46987;32.638;-115.438;2023-04-03T11:16:03;10.38;;;3.03;;
61104;SDS011;46987;32.638;-115.438;2023-04-03T11:18:32;8.73;;;2.75;;
61104;SDS011;46987;32.638;-115.438;2023-04-03T11:21:02;7.25;;;2.55;;
61104;SDS011;46987;32.638;-115.438;2023-04-03T11:23:31;11.55;;;3.10;;
61104;SDS011;46987;32.638;-115.438;2023-04-03T11:26:00;8.57;;;2.53;;
61104;SDS011;46987;32.638;-115.438;2023-04-03T11:28:31;15.35;;;3.60;;
61104;SDS011;46987;32.638;-115.438;2023-04-03T11:31:01;9.30;;;3.13;;
61104;SDS011;46987;32.638;-115.438;2023-04-03T11:33:36;12.85;;;3.03;;
61104;SDS011;46987;32.638;-115.438;2023-04-03T11:36:06;7.18;;;2.65;;
61104;SDS011;46987;32.638;-115.438;2023-04-03T11:38:35;10.77;;;2.72;;
61104;SDS011;46987;32.638;-115.438;2023-04-03T11:41:02;9.35;;;2.80;;
61104;SDS011;46987;32.638;-115.438;2023-04-03T11:43:31;8.40;;;2.55;;
61104;SDS011;46987;32.638;-115.438;2023-04-03T11:46:00;6.45;;;2.38;;
61104;SDS011;46987;32.638;-115.438;2023-04-03T11:48:45;8.02;;;1.95;;
61104;SDS011;46987;32.638;-115.438;2023-04-03T11:56:43;9.70;;;2.20;;
61104;SDS011;46987;32.638;-115.438;2023-04-03T11:59:22;10.93;;;2.10;;
61104;SDS011;46987;32.638;-115.438;2023-04-03T12:01:51;9.52;;;2.47;;
61104;SDS011;46987;32.638;-115.438;2023-04-03T12:04:18;14.88;;;2.30;;
61104;SDS011;46987;32.638;-115.438;2023-04-03T12:06:59;10.90;;;2.28;;
61104;SDS011;46987;32.638;-115.438;2023-04-03T12:09:34;12.32;;;2.15;;
61104;SDS011;46987;32.638;-115.438;2023-04-03T12:12:07;16.85;;;2.42;;
61104;SDS011;46987;32.638;-115.438;2023-04-03T12:14:47;9.93;;;1.95;;
61104;SDS011;46987;32.638;-115.438;2023-04-03T12:17:20;9.18;;;2.25;;
61104;SDS011;46987;32.638;-115.438;2023-04-03T12:19:47;16.63;;;1.90;;
61104;SDS011;46987;32.638;-115.438;2023-04-03T12:22:14;15.75;;;2.53;;
61104;SDS011;46987;32.638;-115.438;2023-04-03T12:24:42;15.55;;;2.83;;
61104;SDS011;46987;32.638;-115.438;2023-04-03T12:27:25;13.73;;;3.22;;
61104;SDS011;46987;32.638;-115.438;2023-04-03T12:29:54;17.98;;;2.63;;
61104;SDS011;46987;32.638;-115.438;2023-04-03T12:32:31;12.80;;;2.92;;
61104;SDS011;46987;32.638;-115.438;2023-04-03T12:35:12;8.60;;;3.20;;
61104;SDS011;46987;32.638;-115.438;2023-04-03T12:37:49;15.82;;;3.28;;
61104;SDS011;46987;32.638;-115.438;2023-04-03T12:40:21;12.43;;;2.90;;
61104;SDS011;46987;32.638;-115.438;2023-04-03T12:45:17;11.60;;;2.55;;
61104;SDS011;46987;32.638;-115.438;2023-04-03T12:47:48;14.18;;;2.60;;
61104;SDS011;46987;32.638;-115.438;2023-04-03T12:50:21;10.68;;;2.78;;
61104;SDS011;46987;32.638;-115.438;2023-04-03T12:52:51;10.90;;;2.88;;
61104;SDS011;46987;32.638;-115.438;2023-04-03T12:55:19;9.80;;;2.35;;
61104;SDS011;46987;32.638;-115.438;2023-04-03T12:57:46;11.80;;;2.95;;
61104;SDS011;46987;32.638;-115.438;2023-04-03T13:00:20;8.45;;;2.63;;
61104;SDS011;46987;32.638;-115.438;2023-04-03T13:02:49;8.23;;;2.58;;
61104;SDS011;46987;32.638;-115.438;2023-04-03T13:05:16;9.18;;;3.45;;
61104;SDS011;46987;32.638;-115.438;2023-04-03T13:07:44;10.32;;;3.63;;
61104;SDS011;46987;32.638;-115.438;2023-04-03T13:10:15;8.75;;;3.25;;
61104;SDS011;46987;32.638;-115.438;2023-04-03T13:12:45;11.02;;;2.97;;
61104;SDS011;46987;32.638;-115.438;2023-04-03T13:15:13;10.50;;;3.45;;
61104;SDS011;46987;32.638;-115.438;2023-04-03T13:17:41;7.93;;;3.20;;
61104;SDS011;46987;32.638;-115.438;2023-04-03T13:20:18;8.05;;;3.13;;
61104;SDS011;46987;32.638;-115.438;2023-04-03T13:22:47;12.00;;;3.67;;
61104;SDS011;46987;32.638;-115.438;2023-04-03T13:25:14;17.73;;;9.88;;
61104;SDS011;46987;32.638;-115.438;2023-04-03T13:27:42;21.45;;;10.73;;
61104;SDS011;46987;32.638;-115.438;2023-04-03T13:30:20;27.80;;;22.13;;
61104;SDS011;46987;32.638;-115.438;2023-04-03T13:32:47;32.22;;;28.70;;
61104;SDS011;46987;32.638;-115.438;2023-04-03T13:35:32;34.60;;;28.85;;
61104;SDS011;46987;32.638;-115.438;2023-04-03T13:38:01;28.10;;;23.20;;
61104;SDS011;46987;32.638;-115.438;2023-04-03T13:40:28;18.85;;;11.82;;
61104;SDS011;46987;32.638;-115.438;2023-04-03T13:43:02;13.25;;;5.75;;
61104;SDS011;46987;32.638;-115.438;2023-04-03T13:45:29;34.22;;;13.52;;
61104;SDS011;46987;32.638;-115.438;2023-04-03T13:48:07;28.70;;;15.27;;
61104;SDS011;46987;32.638;-115.438;2023-04-03T13:50:41;19.63;;;9.38;;
61104;SDS011;46987;32.638;-115.438;2023-04-03T13:53:16;15.70;;;6.63;;
61104;SDS011;46987;32.638;-115.438;2023-04-03T13:55:51;11.15;;;3.63;;
61104;SDS011;46987;32.638;-115.438;2023-04-03T13:58:20;9.43;;;3.10;;
61104;SDS011;46987;32.638;-115.438;2023-04-03T14:00:48;10.85;;;3.08;;
61104;SDS011;46987;32.638;-115.438;2023-04-03T14:03:17;7.82;;;2.42;;
61104;SDS011;46987;32.638;-115.438;2023-04-03T14:05:47;8.98;;;3.00;;
61104;SDS011;46987;32.638;-115.438;2023-04-03T14:08:14;10.52;;;2.60;;
61104;SDS011;46987;32.638;-115.438;2023-04-03T14:10:42;13.93;;;3.72;;
61104;SDS011;46987;32.638;-115.438;2023-04-03T14:13:10;9.23;;;3.28;;
61104;SDS011;46987;32.638;-115.438;2023-04-03T14:15:37;9.52;;;2.70;;
61104;SDS011;46987;32.638;-115.438;2023-04-03T14:18:04;14.85;;;3.33;;
61104;SDS011;46987;32.638;-115.438;2023-04-03T14:20:30;13.25;;;3.00;;
61104;SDS011;46987;32.638;-115.438;2023-04-03T14:22:59;9.00;;;3.28;;
61104;SDS011;46987;32.638;-115.438;2023-04-03T14:25:26;8.98;;;2.30;;
61104;SDS011;46987;32.638;-115.438;2023-04-03T14:27:53;7.53;;;2.35;;
61104;SDS011;46987;32.638;-115.438;2023-04-03T14:30:20;11.48;;;2.97;;
61104;SDS011;46987;32.638;-115.438;2023-04-03T14:32:47;10.40;;;3.38;;
61104;SDS011;46987;32.638;-115.438;2023-04-03T14:35:14;11.48;;;2.60;;
61104;SDS011;46987;32.638;-115.438;2023-04-03T14:37:41;8.00;;;3.00;;
61104;SDS011;46987;32.638;-115.438;2023-04-03T14:40:11;8.43;;;1.88;;
61104;SDS011;46987;32.638;-115.438;2023-04-03T14:42:39;12.80;;;2.00;;
61104;SDS011;46987;32.638;-115.438;2023-04-03T14:45:07;15.77;;;3.53;;
61104;SDS011;46987;32.638;-115.438;2023-04-03T14:47:34;8.10;;;2.83;;
61104;SDS011;46987;32.638;-115.438;2023-04-03T14:50:04;5.40;;;1.80;;
61104;SDS011;46987;32.638;-115.438;2023-04-03T14:52:32;8.60;;;2.25;;
61104;SDS011;46987;32.638;-115.438;2023-04-03T14:54:59;6.60;;;1.83;;
61104;SDS011;46987;32.638;-115.438;2023-04-03T14:57:28;5.78;;;1.95;;
61104;SDS011;46987;32.638;-115.438;2023-04-03T14:59:55;11.65;;;2.53;;
61104;SDS011;46987;32.638;-115.438;2023-04-03T15:02:26;11.82;;;2.30;;
61104;SDS011;46987;32.638;-115.438;2023-04-03T15:04:53;5.93;;;1.73;;
61104;SDS011;46987;32.638;-115.438;2023-04-03T15:07:20;7.47;;;1.67;;
61104;SDS011;46987;32.638;-115.438;2023-04-03T15:09:47;13.80;;;2.50;;
61104;SDS011;46987;32.638;-115.438;2023-04-03T15:12:13;5.63;;;1.55;;
61104;SDS011;46987;32.638;-115.438;2023-04-03T15:14:42;8.35;;;1.80;;
61104;SDS011;46987;32.638;-115.438;2023-04-03T15:17:09;11.30;;;2.67;;
61104;SDS011;46987;32.638;-115.438;2023-04-03T15:19:40;11.15;;;2.00;;
61104;SDS011;46987;32.638;-115.438;2023-04-03T15:22:08;10.85;;;2.38;;
61104;SDS011;46987;32.638;-115.438;2023-04-03T15:24:34;14.30;;;2.30;;
61104;SDS011;46987;32.638;-115.438;2023-04-03T15:27:01;5.40;;;2.15;;
61104;SDS011;46987;32.638;-115.438;2023-04-03T15:29:28;7.63;;;2.33;;
61104;SDS011;46987;32.638;-115.438;2023-04-03T15:31:57;13.20;;;2.17;;
61104;SDS011;46987;32.638;-115.438;2023-04-03T15:34:23;12.98;;;2.40;;
61104;SDS011;46987;32.638;-115.438;2023-04-03T15:36:50;6.95;;;2.58;;
61104;SDS011;46987;32.638;-115.438;2023-04-03T15:39:18;10.13;;;1.70;;
61104;SDS011;46987;32.638;-115.438;2023-04-03T15:41:45;6.13;;;2.15;;
61104;SDS011;46987;32.638;-115.438;2023-04-03T15:44:11;7.72;;;1.70;;
61104;SDS011;46987;32.638;-115.438;2023-04-03T15:46:39;6.85;;;1.70;;
61104;SDS011;46987;32.638;-115.438;2023-04-03T15:49:07;9.15;;;2.05;;
61104;SDS011;46987;32.638;-115.438;2023-04-03T15:51:34;11.65;;;1.90;;
61104;SDS011;46987;32.638;-115.438;2023-04-03T15:54:00;12.48;;;1.92;;
61104;SDS011;46987;32.638;-115.438;2023-04-03T15:56:27;9.75;;;2.10;;
61104;SDS011;46987;32.638;-115.438;2023-04-03T15:58:53;9.55;;;1.88;;
61104;SDS011;46987;32.638;-115.438;2023-04-03T16:01:20;7.78;;;1.70;;
61104;SDS011;46987;32.638;-115.438;2023-04-03T16:03:47;5.55;;;1.70;;
61104;SDS011;46987;32.638;-115.438;2023-04-03T16:06:16;10.02;;;1.70;;
61104;SDS011;46987;32.638;-115.438;2023-04-03T16:08:44;7.30;;;1.60;;
61104;SDS011;46987;32.638;-115.438;2023-04-03T16:11:10;16.85;;;2.20;;
61104;SDS011;46987;32.638;-115.438;2023-04-03T16:13:37;16.63;;;1.85;;
61104;SDS011;46987;32.638;-115.438;2023-04-03T16:16:04;11.20;;;1.98;;
61104;SDS011;46987;32.638;-115.438;2023-04-03T16:18:31;14.75;;;2.40;;